createdAt,value
2023-03-06T05:53:56.138Z,36.00
2023-03-06T05:56:24.029Z,36.90
2023-03-06T05:58:51.989Z,37.00
2023-03-06T06:01:22.103Z,37.20
2023-03-06T06:03:50.172Z,37.20
2023-03-06T06:06:18.202Z,37.30
2023-03-06T06:08:46.235Z,37.40
2023-03-06T06:11:15.677Z,37.40
2023-03-06T06:13:43.845Z,37.50
2023-03-06T06:16:12.500Z,37.50
2023-03-06T06:18:41.444Z,37.60
2023-03-06T06:21:10.188Z,37.60
2023-03-06T06:23:38.142Z,37.70
2023-03-06T06:26:06.871Z,37.80
2023-03-06T06:28:36.190Z,37.80
2023-03-06T06:31:09.064Z,37.90
2023-03-06T06:33:37.025Z,37.80
2023-03-06T06:36:05.524Z,37.80
2023-03-06T06:38:34.404Z,37.90
2023-03-06T06:41:35.655Z,37.90
2023-03-06T06:43:54.096Z,38.00
2023-03-06T06:47:09.310Z,38.00
2023-03-06T06:49:10.339Z,38.00
2023-03-06T06:51:39.468Z,38.00
2023-03-06T06:54:07.581Z,38.00
2023-03-06T06:56:35.616Z,38.10
2023-03-06T06:59:16.232Z,38.00
2023-03-06T07:01:45.434Z,38.10
2023-03-06T07:04:13.677Z,38.10
2023-03-06T07:06:41.835Z,38.00
2023-03-06T07:09:09.832Z,38.10
2023-03-06T07:11:38.605Z,38.70
2023-03-06T07:14:07.901Z,38.10
2023-03-06T07:16:36.055Z,38.10
2023-03-06T07:19:04.280Z,38.10
2023-03-06T07:21:32.249Z,38.10
2023-03-06T07:24:00.206Z,38.10
2023-03-06T07:26:28.475Z,38.10
2023-03-06T07:28:56.402Z,38.10
2023-03-06T07:31:26.741Z,38.10
2023-03-06T07:33:55.143Z,38.10
2023-03-06T07:36:23.249Z,38.10
2023-03-06T07:38:51.293Z,38.10
2023-03-06T07:41:22.187Z,38.00
2023-03-06T07:43:50.648Z,38.10
2023-03-06T07:46:19.434Z,38.00
2023-03-06T07:48:51.852Z,38.00
2023-03-06T07:51:21.087Z,38.00
2023-03-06T07:53:49.420Z,38.10
2023-03-06T07:56:17.357Z,38.10
2023-03-06T07:58:48.807Z,38.10
2023-03-06T08:01:17.588Z,38.20
2023-03-06T08:03:45.648Z,38.10
2023-03-06T08:06:15.878Z,38.60
2023-03-06T08:08:44.664Z,38.20
2023-03-06T08:11:13.176Z,38.20
2023-03-06T08:13:41.421Z,38.30
2023-03-06T08:16:09.808Z,38.30
2023-03-06T08:18:39.520Z,38.40
2023-03-06T08:21:08.472Z,38.40
2023-03-06T08:23:37.903Z,38.30
2023-03-06T08:26:06.940Z,38.20
2023-03-06T08:28:34.969Z,38.20
2023-03-06T08:31:09.292Z,38.00
2023-03-06T08:33:37.407Z,37.90
2023-03-06T08:36:05.798Z,37.70
2023-03-06T08:38:34.150Z,37.60
2023-03-06T08:41:03.757Z,37.50
2023-03-06T08:43:31.841Z,38.00
2023-03-06T08:46:00.137Z,37.30
2023-03-06T08:48:28.177Z,37.10
2023-03-06T08:50:56.158Z,37.00
2023-03-06T08:53:40.270Z,36.90
2023-03-06T08:56:16.517Z,36.90
2023-03-06T08:58:44.540Z,36.70
2023-03-06T09:01:15.146Z,36.60
2023-03-06T09:03:43.166Z,36.50
2023-03-06T09:06:11.101Z,36.40
2023-03-06T09:08:42.892Z,36.30
2023-03-06T09:11:12.578Z,36.20
2023-03-06T09:13:40.540Z,36.10
2023-03-06T09:16:08.887Z,36.10
2023-03-06T09:18:37.070Z,36.00
2023-03-06T09:21:05.421Z,35.90
2023-03-06T09:23:33.432Z,35.80
2023-03-06T09:26:01.518Z,35.70
2023-03-06T09:28:31.208Z,35.60
2023-03-06T09:30:59.289Z,36.20
2023-03-06T09:33:28.731Z,35.50
2023-03-06T09:35:58.521Z,35.40
2023-03-06T09:38:27.436Z,35.30
2023-03-06T09:41:04.225Z,35.40
2023-03-06T09:43:35.446Z,35.30
2023-03-06T09:46:07.999Z,35.30
2023-03-06T09:48:40.562Z,35.30
2023-03-06T09:51:10.799Z,35.30
2023-03-06T09:53:45.107Z,35.30
2023-03-06T09:56:15.073Z,35.40
2023-03-06T09:58:46.536Z,36.10
2023-03-06T10:01:17.311Z,35.40
2023-03-06T10:03:48.996Z,35.50
2023-03-06T10:06:19.039Z,35.50
2023-03-06T10:08:50.004Z,35.40
2023-03-06T10:11:20.962Z,35.40
2023-03-06T10:13:52.657Z,35.50
2023-03-06T10:16:26.092Z,35.60
2023-03-06T10:18:54.744Z,35.60
2023-03-06T10:21:31.339Z,35.80
2023-03-06T10:24:02.496Z,35.90
2023-03-06T10:26:33.543Z,35.90
2023-03-06T10:29:14.605Z,35.90
2023-03-06T10:31:44.676Z,35.90
2023-03-06T10:34:17.464Z,36.00
2023-03-06T10:36:45.511Z,36.00
2023-03-06T10:39:16.600Z,36.10
2023-03-06T10:41:45.320Z,36.00
2023-03-06T10:44:31.508Z,36.00
2023-03-06T10:46:59.450Z,36.00
2023-03-06T10:49:32.872Z,36.10
2023-03-06T10:52:02.780Z,36.10
2023-03-06T10:54:31.600Z,36.10
2023-03-06T10:56:59.611Z,36.20
2023-03-06T10:59:29.384Z,36.20
2023-03-06T11:01:58.383Z,36.20
2023-03-06T11:04:28.140Z,36.20
2023-03-06T11:07:07.334Z,36.20
2023-03-06T11:09:35.344Z,36.20
2023-03-06T11:12:21.782Z,36.20
2023-03-06T11:15:05.986Z,36.30
2023-03-06T11:17:34.367Z,36.30
2023-03-06T11:20:16.837Z,36.40
2023-03-06T11:22:47.577Z,36.50
2023-03-06T11:25:18.118Z,36.50
2023-03-06T11:27:46.584Z,36.50
2023-03-06T11:30:18.984Z,36.50
2023-03-06T11:32:50.307Z,36.60
2023-03-06T11:35:21.094Z,36.50
2023-03-06T11:37:53.825Z,36.60
2023-03-06T11:40:24.946Z,36.50
2023-03-06T11:42:57.031Z,36.50
2023-03-06T11:45:28.702Z,36.50
2023-03-06T11:48:01.745Z,37.10
2023-03-06T11:50:32.388Z,36.30
2023-03-06T11:53:01.516Z,36.30
2023-03-06T11:55:37.964Z,36.40
2023-03-06T11:58:21.659Z,36.40
2023-03-06T12:00:52.562Z,36.40
2023-03-06T12:03:39.805Z,36.40
2023-03-06T12:06:11.354Z,36.40
2023-03-06T12:08:48.481Z,36.40
2023-03-06T12:11:30.660Z,36.50
2023-03-06T12:14:21.549Z,36.50
2023-03-06T12:17:05.667Z,36.60
2023-03-06T12:19:40.619Z,36.70
2023-03-06T12:22:30.798Z,36.80
2023-03-06T12:25:11.629Z,36.90
2023-03-06T12:27:43.316Z,36.80
2023-03-06T12:30:24.875Z,36.80
2023-03-06T12:32:58.909Z,36.90
2023-03-06T12:35:44.825Z,36.80
2023-03-06T12:38:30.985Z,36.70
2023-03-06T12:41:05.436Z,36.80
2023-03-06T12:43:55.216Z,36.70
2023-03-06T12:46:23.846Z,36.60
2023-03-06T12:48:59.426Z,36.60
2023-03-06T12:51:28.600Z,36.60
2023-03-06T12:53:56.631Z,36.50
2023-03-06T12:56:24.605Z,36.50
2023-03-06T12:58:53.191Z,36.30
2023-03-06T13:01:48.854Z,36.20
2023-03-06T13:04:36.503Z,36.20
2023-03-06T13:07:19.969Z,36.10
2023-03-06T13:10:02.218Z,36.20
2023-03-06T13:12:40.055Z,36.10
2023-03-06T13:15:39.439Z,36.00
2023-03-06T13:18:41.127Z,36.00
2023-03-06T13:21:43.263Z,35.90
2023-03-06T13:24:16.431Z,35.80
2023-03-06T13:26:52.838Z,35.80
2023-03-06T13:30:03.439Z,35.80
2023-03-06T13:32:38.225Z,35.70
2023-03-06T13:35:45.507Z,35.70
2023-03-06T13:38:42.658Z,35.80
2023-03-06T13:41:50.244Z,35.70
2023-03-06T13:44:53.901Z,35.70
2023-03-06T13:47:39.710Z,35.50
2023-03-06T13:50:31.475Z,35.40
2023-03-06T13:53:23.071Z,35.20
2023-03-06T13:55:58.268Z,35.00
2023-03-06T13:58:34.203Z,34.90
2023-03-06T14:01:09.059Z,34.80
2023-03-06T14:03:57.323Z,34.80
2023-03-06T14:06:50.926Z,34.70
2023-03-06T14:09:25.607Z,34.70
2023-03-06T14:12:01.521Z,34.70
2023-03-06T14:14:45.641Z,34.70
2023-03-06T14:17:19.574Z,34.70
2023-03-06T14:19:47.537Z,34.70
2023-03-06T14:22:17.626Z,34.60
2023-03-06T14:24:55.076Z,35.20
2023-03-06T14:27:22.998Z,34.20
2023-03-06T14:29:53.142Z,34.30
2023-03-06T14:32:22.241Z,34.20
2023-03-06T14:34:50.318Z,34.10
2023-03-06T14:37:21.952Z,34.00
2023-03-06T14:39:51.426Z,33.90
2023-03-06T14:42:20.375Z,33.80
2023-03-06T14:44:48.600Z,33.70
2023-03-06T14:47:23.310Z,33.70
2023-03-06T14:50:23.332Z,33.80
2023-03-06T14:52:51.783Z,33.80
2023-03-06T14:55:22.109Z,33.90
2023-03-06T14:57:50.841Z,33.90
2023-03-06T15:00:20.340Z,34.00
2023-03-06T15:02:48.810Z,34.00
2023-03-06T15:05:21.748Z,34.20
2023-03-06T15:07:49.726Z,34.30
2023-03-06T15:10:26.916Z,34.40
2023-03-06T15:12:54.938Z,34.70
2023-03-06T15:15:30.985Z,34.80
2023-03-06T15:17:58.908Z,34.90
2023-03-06T15:20:43.924Z,35.10
2023-03-06T15:23:16.784Z,35.20
2023-03-06T15:25:53.040Z,35.30
2023-03-06T15:28:31.680Z,35.40
2023-03-06T15:31:22.128Z,35.50
2023-03-06T15:34:16.014Z,35.60
2023-03-06T15:36:44.533Z,35.60
2023-03-06T15:39:29.315Z,35.60
2023-03-06T15:42:01.883Z,35.60
2023-03-06T15:44:31.372Z,35.70
2023-03-06T15:47:07.912Z,35.70
2023-03-06T15:49:37.643Z,35.80
2023-03-06T15:52:05.768Z,36.00
2023-03-06T15:54:33.823Z,36.00
2023-03-06T15:57:04.178Z,36.00
2023-03-06T15:59:33.281Z,36.10
2023-03-06T16:02:02.260Z,36.10
2023-03-06T16:04:30.389Z,36.10
2023-03-06T16:06:58.481Z,36.20
2023-03-06T16:09:26.771Z,36.20
2023-03-06T16:11:54.781Z,36.30
2023-03-06T16:14:24.501Z,36.50
2023-03-06T16:16:54.103Z,36.50
2023-03-06T16:19:26.259Z,36.50
2023-03-06T16:21:54.585Z,36.60
2023-03-06T16:24:22.576Z,36.60
2023-03-06T16:26:51.809Z,36.60
2023-03-06T16:29:20.199Z,37.30
2023-03-06T16:31:49.533Z,36.50
2023-03-06T16:34:19.857Z,36.50
2023-03-06T16:36:48.382Z,36.30
2023-03-06T16:39:16.799Z,36.30
2023-03-06T16:41:45.934Z,36.20
2023-03-06T16:44:13.973Z,36.10
2023-03-06T16:46:45.374Z,36.00
2023-03-06T16:49:16.833Z,36.10
2023-03-06T16:51:45.163Z,36.00
2023-03-06T16:54:16.308Z,36.10
2023-03-06T16:56:44.399Z,36.00
2023-03-06T16:59:12.450Z,36.70
2023-03-06T17:01:42.675Z,36.10
2023-03-06T17:04:10.732Z,36.00
2023-03-06T17:06:40.083Z,36.10
2023-03-06T17:09:08.073Z,36.10
2023-03-06T17:11:38.444Z,36.10
2023-03-06T17:14:06.876Z,36.70
2023-03-06T17:16:37.008Z,36.20
2023-03-06T17:19:05.009Z,36.30
2023-03-06T17:21:35.286Z,36.20
2023-03-06T17:24:05.033Z,36.20
2023-03-06T17:26:32.996Z,36.20
2023-03-06T17:29:01.020Z,36.20
2023-03-06T17:31:29.124Z,36.10
2023-03-06T17:34:00.309Z,36.10
2023-03-06T17:36:28.439Z,36.00
2023-03-06T17:38:57.134Z,36.00
2023-03-06T17:41:26.483Z,36.00
2023-03-06T17:43:55.796Z,35.80
2023-03-06T17:46:23.811Z,35.70
2023-03-06T17:48:51.810Z,36.40
2023-03-06T17:51:19.803Z,35.70
2023-03-06T17:53:47.777Z,35.70
2023-03-06T17:56:15.874Z,35.70
2023-03-06T17:58:45.228Z,35.60
2023-03-06T18:01:13.482Z,35.60
2023-03-06T18:03:42.802Z,35.60
2023-03-06T18:06:10.943Z,35.60
2023-03-06T18:08:39.049Z,35.50
2023-03-06T18:11:07.876Z,36.20
2023-03-06T18:13:36.611Z,35.60
2023-03-06T18:16:07.010Z,35.60
2023-03-06T18:18:35.076Z,35.60
2023-03-06T18:21:05.079Z,35.60
2023-03-06T18:23:33.038Z,35.60
2023-03-06T18:26:09.790Z,35.60
2023-03-06T18:28:37.907Z,35.60
2023-03-06T18:31:08.859Z,35.70
2023-03-06T18:33:36.923Z,35.70
2023-03-06T18:36:05.178Z,35.70
2023-03-06T18:38:33.171Z,35.70
2023-03-06T18:41:01.119Z,35.80
2023-03-06T18:43:29.190Z,35.80
2023-03-06T18:45:57.472Z,36.50
2023-03-06T18:48:26.765Z,35.80
2023-03-06T18:50:54.746Z,35.80
2023-03-06T18:53:22.894Z,35.80
2023-03-06T18:55:51.131Z,35.80
2023-03-06T18:58:19.131Z,35.80
2023-03-06T19:00:47.242Z,35.90
2023-03-06T19:03:15.540Z,35.90
2023-03-06T19:05:45.630Z,35.90
2023-03-06T19:08:13.602Z,36.00
2023-03-06T19:10:42.958Z,36.00
2023-03-06T19:13:11.117Z,36.10
2023-03-06T19:15:43.124Z,36.10
2023-03-06T19:18:11.455Z,36.20
2023-03-06T19:20:39.362Z,36.20
2023-03-06T19:23:08.663Z,36.20
2023-03-06T19:25:36.615Z,36.20
2023-03-06T19:28:04.745Z,36.30
2023-03-06T19:30:32.676Z,36.30
2023-03-06T19:33:00.642Z,36.30
2023-03-06T19:35:29.152Z,36.40
2023-03-06T19:37:57.106Z,36.50
2023-03-06T19:40:26.384Z,36.50
2023-03-06T19:42:54.506Z,37.10
2023-03-06T19:45:22.434Z,37.30
2023-03-06T19:47:50.540Z,36.70
2023-03-06T19:50:18.583Z,37.40
2023-03-06T19:52:46.641Z,36.70
2023-03-06T19:55:14.614Z,36.70
2023-03-06T19:57:45.284Z,36.70
2023-03-06T20:00:14.597Z,36.70
2023-03-06T20:02:42.544Z,36.70
2023-03-06T20:05:10.895Z,36.70
2023-03-06T20:07:38.845Z,36.70
2023-03-06T20:10:07.431Z,36.80
2023-03-06T20:12:35.449Z,36.70
2023-03-06T20:15:05.085Z,36.90
2023-03-06T20:17:33.711Z,36.80
2023-03-06T20:20:01.792Z,36.80
2023-03-06T20:22:29.777Z,36.90
2023-03-06T20:24:57.709Z,36.80
2023-03-06T20:27:25.903Z,36.80
2023-03-06T20:29:53.844Z,36.80
2023-03-06T20:32:23.160Z,36.90
2023-03-06T20:34:51.126Z,36.90
2023-03-06T20:37:19.180Z,36.90
2023-03-06T20:39:47.806Z,36.90
2023-03-06T20:42:15.779Z,37.00
2023-03-06T20:44:43.728Z,36.90
2023-03-06T20:47:11.681Z,36.90
2023-03-06T20:49:40.989Z,37.60
2023-03-06T20:52:08.978Z,37.00
2023-03-06T20:54:36.972Z,37.00
2023-03-06T20:57:05.026Z,36.90
2023-03-06T20:59:32.980Z,37.00
2023-03-06T21:02:00.932Z,37.00
2023-03-06T21:04:28.979Z,37.60
2023-03-06T21:06:58.370Z,37.00
2023-03-06T21:09:26.304Z,37.10
2023-03-06T21:11:54.247Z,37.00
2023-03-06T21:14:22.186Z,37.10
2023-03-06T21:16:50.130Z,37.70
2023-03-06T21:19:19.255Z,37.10
2023-03-06T21:21:47.232Z,37.10
2023-03-06T21:24:16.562Z,37.00
2023-03-06T21:26:44.539Z,37.10
2023-03-06T21:29:12.474Z,37.10
2023-03-06T21:31:40.979Z,37.10
2023-03-06T21:34:10.520Z,37.10
2023-03-06T21:36:38.673Z,37.10
2023-03-06T21:39:06.788Z,37.10
2023-03-06T21:41:37.829Z,37.10
2023-03-06T21:44:06.376Z,37.20
2023-03-06T21:46:34.384Z,37.30
2023-03-06T21:49:03.342Z,37.30
2023-03-06T21:51:31.456Z,37.40
2023-03-06T21:53:59.483Z,37.40
2023-03-06T21:56:28.460Z,37.50
2023-03-06T21:58:58.290Z,37.50
2023-03-06T22:01:27.208Z,37.60
2023-03-06T22:03:55.353Z,37.60
2023-03-06T22:06:24.126Z,37.70
2023-03-06T22:08:52.310Z,38.40
2023-03-06T22:11:21.173Z,37.80
2023-03-06T22:13:49.320Z,37.90
2023-03-06T22:16:20.616Z,37.90
2023-03-06T22:18:49.372Z,37.90
2023-03-06T22:21:18.064Z,37.90
2023-03-06T22:23:49.248Z,38.00
2023-03-06T22:26:17.214Z,38.00
2023-03-06T22:28:45.174Z,38.00
2023-03-06T22:31:14.122Z,38.00
2023-03-06T22:33:43.471Z,38.00
2023-03-06T22:36:12.669Z,38.00
2023-03-06T22:38:42.324Z,38.00
2023-03-06T22:41:10.438Z,38.00
2023-03-06T22:43:38.363Z,38.00
2023-03-06T22:46:07.879Z,38.10
2023-03-06T22:48:35.973Z,38.10
2023-03-06T22:51:05.923Z,38.10
2023-03-06T22:53:33.985Z,38.00
2023-03-06T22:56:02.334Z,38.00
2023-03-06T22:58:34.311Z,38.10
2023-03-06T23:01:06.208Z,38.70
2023-03-06T23:03:34.236Z,38.10
2023-03-06T23:06:02.154Z,38.00
2023-03-06T23:08:31.485Z,38.00
2023-03-06T23:10:59.497Z,38.00
2023-03-06T23:13:27.475Z,38.00
2023-03-06T23:15:55.469Z,38.00
2023-03-06T23:18:23.513Z,38.00
2023-03-06T23:20:51.452Z,37.90
2023-03-06T23:23:19.486Z,38.00
2023-03-06T23:25:49.253Z,37.90
2023-03-06T23:28:17.459Z,37.90
2023-03-06T23:30:45.480Z,38.00
2023-03-06T23:33:13.505Z,37.90
2023-03-06T23:35:41.481Z,37.90
2023-03-06T23:38:09.465Z,37.90
2023-03-06T23:40:37.616Z,37.90
2023-03-06T23:43:06.925Z,37.90
2023-03-06T23:45:35.030Z,37.90
2023-03-06T23:48:02.969Z,37.90
2023-03-06T23:50:31.795Z,37.90
2023-03-06T23:52:59.968Z,37.90
2023-03-06T23:55:27.918Z,37.90
2023-03-06T23:57:55.888Z,37.90
